Providence, Arkansas
Current Conditions -  °F | °C
As of 7:56 PM on Friday 28 Nov 2014 (Local Time) from KSRC Reporting Station
Clear Clear  
Wind Chill: 41°   Ceiling: Unl
Heat Index: 46°   Visibility: 10mi
Dew Point: 38°   Wind: 9mph
Humidity: 73%   Direction: 190°S
Pressure: 30.09"   Gusts: NA
Location:  35.3936°N, 91.6575°W
Report Text: KSRC 290156Z AUTO 19008KT 10SM CLR 08/03 A3009 RMK AO2 SLP195 T00780033 TSNO
Loading
Personal Weather Stations






























Interactive Weather Map New forecast layout! Learn more

10-Day Weather Forecast

Advertisements
Track Severe Weather on mobile